Latest Weather Observations for Kadina

IDS60801

Issued at 12:31 pm CST Tuesday 21 April 2015 (issued every 30 minutes, with the page automatically refreshed every 10 minutes)

About weather observations | Map of weather stations | Latest weather observations for SA | Other Formats
Station Details ID: 022050 Name: KADINA AWS Lat: -33.97 Lon: 137.66 Height: 41.14 m
Data from the previous 72 hours. | See also: Recent months at Kadina
Date/Time
CST
Temp
°C
App
Temp
°C
Dew
Point
Rel
Hum
%
Delta-T
°C
Wind Press
QNH
hPa
Press
MSL
hPa
Rain
since 9 am
mm
Dir
 
Spd
km/h
Gust
km/h
Spd
kts
Gust
kts
21/12:30pm 17.6 12.0 5.2 44 5.9 ESE 24 33 13 18 1031.5 - 0.0
21/12:00pm 17.2 11.2 5.2 45 5.7 ESE 26 41 14 22 1032.1 1031.9 0.0
21/11:30am 17.1 11.3 4.4 43 6.0 E 24 35 13 19 1032.7 - 0.0
21/11:00am 16.5 10.0 4.5 45 5.7 ESE 28 37 15 20 1033.1 - 0.0
21/10:30am 15.8 9.6 4.5 47 5.3 ESE 26 33 14 18 1033.6 - 0.0
21/10:00am 15.4 9.7 5.0 50 4.9 ESE 24 32 13 17 1034.0 - 0.0
21/09:30am 14.6 9.1 5.7 55 4.2 ESE 24 35 13 19 1034.3 - 0.0
21/09:00am 13.4 8.0 6.3 62 3.4 ESE 24 33 13 18 1034.4 1034.2 0.0
21/08:30am 11.8 8.0 7.5 75 2.1 ESE 17 22 9 12 1034.5 - 0.0
21/08:00am 9.3 6.6 7.3 87 0.9 ESE 11 17 6 9 1034.5 - 0.0
21/07:30am 6.6 3.1 5.6 93 0.4 ESE 13 17 7 9 1034.1 - 0.0
21/07:00am 5.2 1.9 4.3 94 0.4 SE 11 15 6 8 1034.1 - 0.0
21/06:30am 4.1 0.1 3.1 93 0.4 SE 13 15 7 8 1033.9 - 0.0
21/06:00am 4.6 0.8 3.7 94 0.4 SSE 13 15 7 8 1033.8 1033.6 0.0
21/05:30am 4.7 0.8 3.5 92 0.5 SE 13 15 7 8 1033.7 - 0.0
21/05:00am 4.5 0.2 3.2 91 0.5 SE 15 15 8 8 1033.7 - 0.0
21/04:30am 6.3 2.8 5.3 93 0.4 SSE 13 15 7 8 1033.8 - 0.0
21/04:00am 5.4 2.5 4.5 94 0.4 SSE 9 11 5 6 1033.7 - 0.0
21/03:30am 5.5 3.0 4.6 94 0.4 SSE 7 9 4 5 1033.8 - 0.0
21/03:00am 6.6 4.3 5.6 93 0.4 ESE 7 7 4 4 1033.9 1033.7 0.0
21/02:30am 7.1 4.5 5.9 92 0.5 SSE 9 9 5 5 1034.1 - 0.0
21/02:00am 6.7 5.0 5.7 93 0.4 SE 4 7 2 4 1034.3 - 0.0
21/01:30am 5.8 2.5 4.6 92 0.5 S 11 11 6 6 1034.6 - 0.0
21/01:00am 6.0 3.1 4.6 91 0.6 S 9 11 5 6 1034.8 - 0.0
21/12:30am 6.9 4.6 5.7 92 0.5 SSE 7 9 4 5 1034.9 - 0.0
21/12:00am 6.8 4.1 5.4 91 0.6 SSE 9 11 5 6 1035.0 1034.8 0.0
 
Date/Time
CST
Temp
°C
App
Temp
°C
Dew
Point
Rel
Hum
%
Delta-T
°C
Wind Press
QNH
hPa
Press
MSL
hPa
Rain
since 9 am
mm
Dir
 
Spd
km/h
Gust
km/h
Spd
kts
Gust
kts
20/11:30pm 6.4 2.4 4.9 90 0.7 SE 15 15 8 8 1035.0 - 0.0
20/11:00pm 7.3 3.4 5.4 88 0.8 SE 15 15 8 8 1035.3 - 0.0
20/10:30pm 8.1 4.6 5.6 84 1.1 SE 13 15 7 8 1035.4 - 0.0
20/10:00pm 9.4 5.7 6.1 80 1.5 SE 15 17 8 9 1035.6 - 0.0
20/09:30pm 10.7 6.7 6.6 76 1.9 SSE 17 22 9 12 1035.7 - 0.0
20/09:00pm 11.1 7.1 6.5 73 2.1 SSE 17 20 9 11 1035.7 1035.5 0.0
20/08:30pm 11.4 6.9 6.3 71 2.4 SSE 19 24 10 13 1035.5 - 0.0
20/08:00pm 11.3 6.8 6.2 71 2.4 SSE 19 24 10 13 1035.4 - 0.0
20/07:30pm 11.0 6.9 6.0 71 2.3 SSE 17 22 9 12 1035.6 - 0.0
20/07:00pm 10.7 6.8 5.3 69 2.5 S 15 19 8 10 1035.6 - 0.0
20/06:30pm 11.7 7.6 4.4 61 3.3 SSE 15 19 8 10 1035.3 - 0.0
20/06:00pm 13.2 8.2 4.4 55 4.0 SSE 20 30 11 16 1035.0 1034.8 0.0
20/05:30pm 14.3 7.9 3.2 47 5.0 SSE 26 35 14 19 1034.8 - 0.0
20/05:00pm 15.2 8.9 1.7 40 5.9 SSE 24 32 13 17 1034.7 - 0.0
20/04:30pm 15.9 10.0 1.6 38 6.3 SE 22 32 12 17 1034.6 - 0.0
20/04:00pm 16.5 10.9 1.4 36 6.7 SE 20 33 11 18 1034.8 - 0.0
20/03:30pm 16.9 11.3 1.4 35 6.9 SE 20 30 11 16 1035.0 - 0.0
20/03:00pm 16.7 11.1 -0.1 32 7.1 SE 19 30 10 16 1034.9 1034.7 0.0
20/02:30pm 16.9 10.8 0.5 33 7.1 SE 22 33 12 18 1034.9 - 0.0
20/02:00pm 17.4 11.3 0.6 32 7.4 ESE 22 30 12 16 1035.1 - 0.0
20/01:30pm 16.9 10.8 0.5 33 7.1 SE 22 37 12 20 1035.4 - 0.0
20/01:00pm 16.6 10.1 0.3 33 7.0 ESE 24 35 13 19 1036.1 - 0.0
20/12:30pm 16.6 10.5 0.3 33 7.0 ESE 22 30 12 16 1036.6 - 0.0
20/12:00pm 15.7 8.9 -1.8 30 7.1 ESE 24 33 13 18 1037.1 1037.0 0.0
20/11:30am 15.7 8.8 0.3 35 6.6 ESE 26 37 14 20 1037.6 - 0.0
20/11:00am 15.2 8.5 1.4 39 6.0 E 26 37 14 20 1037.9 - 0.0
20/10:30am 14.4 7.2 0.6 39 5.9 E 28 39 15 21 1038.2 - 0.0
20/10:00am 13.4 6.4 2.0 46 5.0 E 28 35 15 19 1038.7 - 0.0
20/09:30am 12.9 6.5 3.3 52 4.3 ESE 26 37 14 20 1038.8 - 0.0
20/09:00am 11.4 5.6 4.4 62 3.1 ESE 24 30 13 16 1039.0 1038.9 0.2
20/08:30am 9.2 4.8 4.8 74 2.0 ESE 17 22 9 12 1038.8 - 0.2
20/08:00am 7.1 3.0 4.2 82 1.3 ESE 15 17 8 9 1038.5 - 0.2
20/07:30am 4.8 0.9 3.5 91 0.5 SE 13 15 7 8 1038.3 - 0.2
20/07:00am 2.4 -2.3 0.9 90 0.6 SE 15 15 8 8 1038.2 - 0.2
20/06:30am 4.0 -0.1 2.0 87 0.8 SE 13 17 7 9 1038.1 - 0.2
20/06:00am 4.7 -0.4 3.0 89 0.7 SE 19 22 10 12 1038.0 1037.9 0.2
20/05:30am 4.3 -0.4 3.0 91 0.5 SE 17 19 9 10 1037.7 - 0.2
20/05:00am 3.0 -1.5 2.1 94 0.4 SE 15 17 8 9 1037.5 - 0.2
20/04:30am 2.0 -2.7 1.1 94 0.3 SE 15 17 8 9 1037.3 - 0.2
20/04:00am 2.4 -1.8 1.4 93 0.4 SE 13 15 7 8 1037.2 - 0.2
20/03:30am 3.0 -1.5 2.1 94 0.4 SE 15 17 8 9 1037.2 - 0.2
20/03:00am 2.4 -2.2 1.4 93 0.4 SE 15 17 8 9 1037.3 1037.2 0.2
20/02:30am 2.6 -2.0 1.6 93 0.4 SE 15 17 8 9 1037.1 - 0.2
20/02:00am 3.5 -0.6 2.5 93 0.4 SE 13 17 7 9 1037.1 - 0.2
20/01:30am 4.7 0.4 3.4 91 0.5 SE 15 17 8 9 1037.1 - 0.2
20/01:00am 4.3 0.3 3.1 92 0.5 SE 13 15 7 8 1037.3 - 0.2
20/12:30am 4.9 0.7 3.6 91 0.5 SE 15 15 8 8 1037.2 - 0.2
20/12:00am 5.4 1.9 3.7 89 0.7 SE 11 13 6 7 1037.1 1037.0 0.2
 
Date/Time
CST
Temp
°C
App
Temp
°C
Dew
Point
Rel
Hum
%
Delta-T
°C
Wind Press
QNH
hPa
Press
MSL
hPa
Rain
since 9 am
mm
Dir
 
Spd
km/h
Gust
km/h
Spd
kts
Gust
kts
19/11:30pm 6.0 2.7 4.5 90 0.6 ESE 11 11 6 6 1037.3 - 0.2
19/11:00pm 5.7 2.0 4.3 91 0.6 SE 13 13 7 7 1037.3 - 0.2
19/10:30pm 4.8 1.2 3.0 88 0.7 ESE 11 13 6 7 1037.2 - 0.2
19/10:00pm 5.3 1.4 3.2 86 0.9 SE 13 15 7 8 1037.1 - 0.2
19/09:30pm 6.4 2.2 3.7 83 1.1 SE 15 17 8 9 1036.9 - 0.2
19/09:00pm 6.5 2.7 3.8 83 1.1 SE 13 15 7 8 1036.7 1036.6 0.2
19/08:30pm 8.4 4.4 4.8 78 1.6 SSE 15 17 8 9 1036.1 - 0.2
19/08:00pm 9.2 4.9 5.4 77 1.7 S 17 20 9 11 1035.9 - 0.2
19/07:30pm 9.4 5.4 4.8 73 2.1 S 15 17 8 9 1035.5 - 0.2
19/07:00pm 10.9 6.5 5.0 67 2.7 S 17 20 9 11 1035.2 - 0.2
19/06:30pm 11.0 6.9 4.2 63 3.0 SSE 15 17 8 9 1034.7 - 0.2
19/06:00pm 12.4 7.9 4.1 57 3.7 SSE 17 22 9 12 1034.3 1034.1 0.2
19/05:30pm 14.0 8.2 4.3 52 4.5 SSE 24 35 13 19 1034.0 - 0.2
19/05:00pm 15.5 8.8 3.9 46 5.4 SSE 28 37 15 20 1033.8 - 0.2
19/04:30pm 15.7 9.7 5.3 50 5.0 SSE 26 37 14 20 1033.5 - 0.2
19/04:00pm 16.6 9.8 5.3 47 5.4 SE 30 44 16 24 1033.3 - 0.2
19/03:30pm 15.3 7.5 4.9 50 4.9 SE 35 44 19 24 1033.3 - 0.2
19/03:00pm 17.3 11.3 5.3 45 5.7 SE 26 43 14 23 1032.8 1032.6 0.2
19/02:32pm 17.3 10.6 3.9 41 6.3 SE 28 46 15 25 1032.6 - 0.2
19/02:30pm 17.6 11.0 5.9 46 5.7 SE 30 44 16 24 1032.7 - 0.2
19/02:00pm 16.7 9.7 4.1 43 5.9 SE 30 43 16 23 1032.7 - 0.2
19/01:30pm 15.8 9.8 7.0 56 4.3 SSE 28 41 15 22 1032.9 - 0.2
19/01:00pm 15.0 9.1 5.8 54 4.4 SSE 26 35 14 19 1033.1 - 0.2
19/12:30pm 15.2 7.7 8.0 62 3.6 SSE 37 46 20 25 1033.4 - 0.2
19/12:00pm 16.3 9.4 6.4 52 4.8 SSE 32 44 17 24 1033.4 1033.2 0.2
19/11:30am 13.8 9.5 9.5 75 2.2 SE 22 32 12 17 1033.6 - 0.2
19/11:00am 13.0 8.0 8.1 72 2.4 SE 24 41 13 22 1033.6 - 0.0
19/10:30am 15.3 10.5 8.8 65 3.3 ESE 24 33 13 18 1033.5 - 0.0
19/10:00am 14.3 9.1 7.4 63 3.4 SSE 24 35 13 19 1033.4 - 0.0
19/09:30am 14.2 8.4 7.9 66 3.1 SSE 28 41 15 22 1033.1 - 0.0
19/09:00am 13.4 9.1 7.0 65 3.1 SSE 19 26 10 14 1032.8 1032.6 1.2
19/08:30am 12.6 7.9 7.7 72 2.4 SSE 22 28 12 15 1032.1 - 1.2
19/08:00am 9.4 5.4 6.5 82 1.3 SSE 17 20 9 11 1031.5 - 1.2
19/07:30am 8.8 4.3 5.9 82 1.3 S 19 24 10 13 1030.9 - 1.2
19/07:00am 8.3 3.7 5.8 84 1.1 S 19 22 10 12 1030.2 - 1.2
19/06:30am 8.6 3.9 6.1 84 1.1 S 20 24 11 13 1029.8 - 1.2
19/06:00am 8.8 3.7 6.2 84 1.2 S 22 28 12 15 1029.3 1029.1 1.2
19/05:30am 8.3 3.6 5.9 85 1.1 S 20 26 11 14 1028.8 - 1.2
19/05:00am 8.8 4.1 6.1 83 1.2 S 20 24 11 13 1028.3 - 1.2
19/04:30am 9.0 4.4 6.4 84 1.2 S 20 24 11 13 1027.8 - 1.2
19/04:00am 9.0 4.4 6.4 84 1.2 S 20 26 11 14 1027.5 - 1.2
19/03:30am 9.3 4.4 6.7 84 1.2 S 22 28 12 15 1027.1 - 1.2
19/03:00am 9.1 5.2 6.9 86 1.0 SSE 17 20 9 11 1027.0 1026.8 1.2
19/02:30am 9.1 4.7 6.7 85 1.1 SSE 19 24 10 13 1027.0 - 1.2
19/02:00am 7.6 4.2 5.9 89 0.8 S 13 17 7 9 1026.9 - 1.2
19/01:30am 8.9 5.2 6.5 85 1.1 S 15 19 8 10 1026.8 - 1.2
19/01:00am 9.5 5.6 7.1 85 1.1 S 17 20 9 11 1026.5 - 1.2
19/12:30am 9.3 5.4 7.3 87 0.9 S 17 19 9 10 1026.3 - 1.2
19/12:00am 9.8 5.6 7.6 86 1.0 S 19 20 10 11 1026.0 1025.8 1.2
 
Date/Time
CST
Temp
°C
App
Temp
°C
Dew
Point
Rel
Hum
%
Delta-T
°C
Wind Press
QNH
hPa
Press
MSL
hPa
Rain
since 9 am
mm
Dir
 
Spd
km/h
Gust
km/h
Spd
kts
Gust
kts
18/11:30pm 10.3 6.2 7.9 85 1.2 S 19 24 10 13 1025.8 - 1.2
18/11:00pm 10.7 6.1 8.1 84 1.3 S 22 26 12 14 1025.8 - 1.2
18/10:30pm 10.3 6.3 8.2 87 1.0 S 19 24 10 13 1025.6 - 1.2
18/10:00pm 10.9 6.4 8.5 85 1.2 S 22 28 12 15 1025.0 - 1.2
18/09:30pm 11.5 7.5 9.2 86 1.2 S 20 24 11 13 1024.5 - 1.2
18/09:00pm 12.6 9.3 11.0 90 0.8 S 19 24 10 13 1023.9 1023.7 1.2
18/08:30pm 13.0 10.7 11.9 93 0.6 S 15 19 8 10 1023.3 - 1.2
18/08:00pm 13.0 10.7 11.7 92 0.7 S 15 20 8 11 1022.7 - 1.2
18/07:30pm 12.9 10.2 11.8 93 0.6 S 17 22 9 12 1022.3 - 1.2
18/07:00pm 12.8 9.8 11.9 94 0.5 S 19 20 10 11 1021.7 - 1.2
18/06:30pm 12.8 9.2 11.9 94 0.5 S 22 30 12 16 1021.2 - 1.2
18/06:00pm 12.5 6.9 11.6 94 0.5 S 32 43 17 23 1020.5 1020.4 1.2
18/05:30pm 13.3 6.6 12.4 94 0.5 S 39 54 21 29 1019.8 - 0.6
18/05:00pm 15.0 10.2 14.0 94 0.6 SSW 32 44 17 24 1019.3 - 0.4
18/04:30pm 16.9 13.9 14.9 88 1.2 WSW 24 32 13 17 1018.5 - 0.2
18/04:00pm 16.6 13.3 15.1 91 0.9 WSW 26 41 14 22 1018.4 - 0.2
18/03:30pm 17.0 13.2 15.7 92 0.8 WSW 30 41 16 22 1018.2 - 0.2
18/03:00pm 19.2 15.3 13.4 69 3.3 WNW 26 35 14 19 1017.9 1017.8 0.0
18/02:30pm 19.5 14.8 13.2 67 3.6 WNW 30 37 16 20 1018.0 - 0.0
18/02:00pm 20.1 15.0 13.8 67 3.6 WNW 33 44 18 24 1018.1 - 0.0
18/01:30pm 19.3 14.0 13.2 68 3.5 W 33 44 18 24 1018.4 - 0.0
18/01:00pm 19.1 13.4 11.7 62 4.1 WNW 33 46 18 25 1018.4 - 0.0

Other Formats:

Comma delimited format used in spreadsheet applications
http://www.bom.gov.au/fwo/IDS60801/IDS60801.94685.axf

JavaScript Object Notation format (JSON) in row-major order
http://www.bom.gov.au/fwo/IDS60801/IDS60801.94685.json